sensor_id;sensor_type;location;lat;lon;timestamp;pressure;altitude;pressure_sealevel;temperature;humidity
56689;BME280;42565;53.342;-1.534;2023-12-28T00:01:43;96715.88;;;5.62;87.16
56689;BME280;42565;53.342;-1.534;2023-12-28T00:04:10;96704.38;;;6.03;84.03
56689;BME280;42565;53.342;-1.534;2023-12-28T00:06:37;96719.31;;;6.15;82.70
56689;BME280;42565;53.342;-1.534;2023-12-28T00:09:03;96722.83;;;5.85;77.66
56689;BME280;42565;53.342;-1.534;2023-12-28T00:11:30;96729.27;;;5.70;76.51
56689;BME280;42565;53.342;-1.534;2023-12-28T00:13:58;96741.02;;;5.49;75.70
56689;BME280;42565;53.342;-1.534;2023-12-28T00:16:25;96755.02;;;5.61;75.81
56689;BME280;42565;53.342;-1.534;2023-12-28T00:18:52;96742.60;;;5.64;74.05
56689;BME280;42565;53.342;-1.534;2023-12-28T00:21:19;96755.03;;;5.79;73.28
56689;BME280;42565;53.342;-1.534;2023-12-28T00:23:45;96762.47;;;5.64;74.35
56689;BME280;42565;53.342;-1.534;2023-12-28T00:26:12;96764.06;;;6.27;74.13
56689;BME280;42565;53.342;-1.534;2023-12-28T00:28:40;96754.43;;;5.48;73.24
56689;BME280;42565;53.342;-1.534;2023-12-28T00:31:06;96755.98;;;5.87;74.22
56689;BME280;42565;53.342;-1.534;2023-12-28T00:33:33;96755.98;;;6.14;74.47
56689;BME280;42565;53.342;-1.534;2023-12-28T00:36:00;96748.44;;;5.79;73.64
56689;BME280;42565;53.342;-1.534;2023-12-28T00:38:27;96753.04;;;6.18;71.94
56689;BME280;42565;53.342;-1.534;2023-12-28T00:40:54;96760.98;;;6.14;71.69
56689;BME280;42565;53.342;-1.534;2023-12-28T00:43:21;96757.60;;;5.63;72.20
56689;BME280;42565;53.342;-1.534;2023-12-28T00:45:48;96762.24;;;5.89;71.23
56689;BME280;42565;53.342;-1.534;2023-12-28T00:48:15;96774.97;;;6.49;71.79
56689;BME280;42565;53.342;-1.534;2023-12-28T00:50:42;96780.14;;;6.52;71.44
56689;BME280;42565;53.342;-1.534;2023-12-28T00:53:10;96782.48;;;6.40;70.65
56689;BME280;42565;53.342;-1.534;2023-12-28T00:55:37;96774.21;;;6.46;71.24
56689;BME280;42565;53.342;-1.534;2023-12-28T00:58:03;96785.98;;;6.30;72.97
56689;BME280;42565;53.342;-1.534;2023-12-28T01:00:30;96771.63;;;5.73;76.05
56689;BME280;42565;53.342;-1.534;2023-12-28T01:02:57;96775.46;;;5.81;77.21
56689;BME280;42565;53.342;-1.534;2023-12-28T01:05:23;96780.55;;;5.74;78.81
56689;BME280;42565;53.342;-1.534;2023-12-28T01:07:50;96785.57;;;5.96;78.38
56689;BME280;42565;53.342;-1.534;2023-12-28T01:10:17;96753.06;;;5.51;78.40
56689;BME280;42565;53.342;-1.534;2023-12-28T01:12:45;96747.78;;;6.10;77.00
56689;BME280;42565;53.342;-1.534;2023-12-28T01:15:11;96747.76;;;6.23;76.32
56689;BME280;42565;53.342;-1.534;2023-12-28T01:17:39;96762.32;;;6.00;78.08
56689;BME280;42565;53.342;-1.534;2023-12-28T01:20:07;96747.79;;;5.90;79.51
56689;BME280;42565;53.342;-1.534;2023-12-28T01:22:34;96738.34;;;5.64;79.56
56689;BME280;42565;53.342;-1.534;2023-12-28T01:25:01;96738.39;;;5.93;78.76
56689;BME280;42565;53.342;-1.534;2023-12-28T01:27:28;96737.26;;;6.01;77.70
56689;BME280;42565;53.342;-1.534;2023-12-28T01:29:55;96754.18;;;5.97;79.22
56689;BME280;42565;53.342;-1.534;2023-12-28T01:32:22;96734.18;;;5.51;81.35
56689;BME280;42565;53.342;-1.534;2023-12-28T01:34:49;96764.14;;;5.89;81.09
56689;BME280;42565;53.342;-1.534;2023-12-28T01:37:16;96747.30;;;5.22;83.97
56689;BME280;42565;53.342;-1.534;2023-12-28T01:39:43;96741.07;;;5.38;82.84
56689;BME280;42565;53.342;-1.534;2023-12-28T01:42:10;96742.91;;;5.22;81.80
56689;BME280;42565;53.342;-1.534;2023-12-28T01:44:36;96730.47;;;5.57;80.20
56689;BME280;42565;53.342;-1.534;2023-12-28T01:47:04;96720.97;;;5.99;79.61
56689;BME280;42565;53.342;-1.534;2023-12-28T01:49:32;96721.18;;;6.09;78.96
56689;BME280;42565;53.342;-1.534;2023-12-28T01:51:59;96737.85;;;6.29;78.83
56689;BME280;42565;53.342;-1.534;2023-12-28T01:54:27;96744.23;;;6.16;79.43
56689;BME280;42565;53.342;-1.534;2023-12-28T01:56:55;96756.06;;;5.96;84.54
56689;BME280;42565;53.342;-1.534;2023-12-28T01:59:22;96763.61;;;6.06;86.98
56689;BME280;42565;53.342;-1.534;2023-12-28T02:01:49;96761.63;;;5.80;90.48
56689;BME280;42565;53.342;-1.534;2023-12-28T02:04:17;96770.19;;;5.94;90.10
56689;BME280;42565;53.342;-1.534;2023-12-28T02:06:44;96789.94;;;6.35;89.48
56689;BME280;42565;53.342;-1.534;2023-12-28T02:09:12;96795.00;;;6.45;89.40
56689;BME280;42565;53.342;-1.534;2023-12-28T02:11:39;96811.17;;;6.43;89.84
56689;BME280;42565;53.342;-1.534;2023-12-28T02:14:07;96812.22;;;6.11;91.82
56689;BME280;42565;53.342;-1.534;2023-12-28T02:16:38;96812.72;;;5.91;94.01
56689;BME280;42565;53.342;-1.534;2023-12-28T02:19:17;96817.65;;;5.58;93.59
56689;BME280;42565;53.342;-1.534;2023-12-28T02:21:47;96804.76;;;5.37;96.42
56689;BME280;42565;53.342;-1.534;2023-12-28T02:24:15;96791.31;;;5.23;96.33
56689;BME280;42565;53.342;-1.534;2023-12-28T02:26:42;96796.44;;;5.75;93.48
56689;BME280;42565;53.342;-1.534;2023-12-28T02:29:09;96803.58;;;5.45;94.54
56689;BME280;42565;53.342;-1.534;2023-12-28T02:31:39;96807.71;;;5.80;92.56
56689;BME280;42565;53.342;-1.534;2023-12-28T02:34:14;96799.36;;;6.04;91.03
56689;BME280;42565;53.342;-1.534;2023-12-28T02:36:44;96801.12;;;5.67;92.29
56689;BME280;42565;53.342;-1.534;2023-12-28T02:39:14;96796.75;;;5.46;90.90
56689;BME280;42565;53.342;-1.534;2023-12-28T02:41:44;96800.50;;;6.00;90.61
56689;BME280;42565;53.342;-1.534;2023-12-28T02:44:12;96812.09;;;6.04;91.27
56689;BME280;42565;53.342;-1.534;2023-12-28T02:46:40;96814.60;;;5.88;90.67
56689;BME280;42565;53.342;-1.534;2023-12-28T02:49:06;96818.59;;;5.60;91.87
56689;BME280;42565;53.342;-1.534;2023-12-28T02:51:34;96807.89;;;5.86;92.55
56689;BME280;42565;53.342;-1.534;2023-12-28T02:54:00;96816.53;;;5.42;93.51
56689;BME280;42565;53.342;-1.534;2023-12-28T02:56:27;96839.35;;;5.32;94.80
56689;BME280;42565;53.342;-1.534;2023-12-28T02:58:55;96850.92;;;5.31;96.76
56689;BME280;42565;53.342;-1.534;2023-12-28T03:01:22;96858.97;;;5.50;98.05
56689;BME280;42565;53.342;-1.534;2023-12-28T03:03:49;96873.90;;;5.91;96.38
56689;BME280;42565;53.342;-1.534;2023-12-28T03:06:16;96865.60;;;5.21;94.53
56689;BME280;42565;53.342;-1.534;2023-12-28T03:08:43;96864.29;;;5.20;93.93
56689;BME280;42565;53.342;-1.534;2023-12-28T03:11:10;96869.73;;;5.58;93.89
56689;BME280;42565;53.342;-1.534;2023-12-28T03:13:37;96860.43;;;5.43;94.46
56689;BME280;42565;53.342;-1.534;2023-12-28T03:16:05;96871.58;;;6.31;92.02
56689;BME280;42565;53.342;-1.534;2023-12-28T03:18:32;96869.68;;;6.13;88.12
56689;BME280;42565;53.342;-1.534;2023-12-28T03:21:00;96881.44;;;6.72;87.07
56689;BME280;42565;53.342;-1.534;2023-12-28T03:23:27;96896.33;;;6.21;85.78
56689;BME280;42565;53.342;-1.534;2023-12-28T03:25:54;96906.99;;;6.80;84.29
56689;BME280;42565;53.342;-1.534;2023-12-28T03:28:21;96917.35;;;6.64;85.13
56689;BME280;42565;53.342;-1.534;2023-12-28T03:30:49;96917.11;;;6.68;87.00
56689;BME280;42565;53.342;-1.534;2023-12-28T03:33:16;96916.24;;;6.42;84.98
56689;BME280;42565;53.342;-1.534;2023-12-28T03:35:43;96924.49;;;7.34;84.19
56689;BME280;42565;53.342;-1.534;2023-12-28T03:38:10;96931.82;;;6.46;83.32
56689;BME280;42565;53.342;-1.534;2023-12-28T03:40:37;96939.16;;;5.99;86.20
56689;BME280;42565;53.342;-1.534;2023-12-28T03:43:04;96945.18;;;6.48;86.30
56689;BME280;42565;53.342;-1.534;2023-12-28T03:45:31;96962.80;;;6.94;84.73
56689;BME280;42565;53.342;-1.534;2023-12-28T03:47:57;96959.41;;;6.32;84.80
56689;BME280;42565;53.342;-1.534;2023-12-28T03:50:24;96966.94;;;6.42;84.92
56689;BME280;42565;53.342;-1.534;2023-12-28T03:52:51;96970.08;;;6.91;84.24
56689;BME280;42565;53.342;-1.534;2023-12-28T03:55:18;96979.89;;;5.92;85.62
56689;BME280;42565;53.342;-1.534;2023-12-28T03:57:45;96988.25;;;5.73;86.37
56689;BME280;42565;53.342;-1.534;2023-12-28T04:00:13;97007.32;;;6.06;84.84
56689;BME280;42565;53.342;-1.534;2023-12-28T04:02:40;96990.27;;;6.33;84.28
56689;BME280;42565;53.342;-1.534;2023-12-28T04:05:08;97003.56;;;6.51;83.63
56689;BME280;42565;53.342;-1.534;2023-12-28T04:07:35;97004.93;;;6.34;83.07
56689;BME280;42565;53.342;-1.534;2023-12-28T04:10:03;97017.41;;;6.33;83.06
56689;BME280;42565;53.342;-1.534;2023-12-28T04:12:30;97003.39;;;6.29;83.73
56689;BME280;42565;53.342;-1.534;2023-12-28T04:14:57;97014.14;;;6.25;83.12
56689;BME280;42565;53.342;-1.534;2023-12-28T04:17:24;97019.79;;;6.49;83.05
56689;BME280;42565;53.342;-1.534;2023-12-28T04:19:51;97025.26;;;6.94;80.37
56689;BME280;42565;53.342;-1.534;2023-12-28T04:22:18;97025.76;;;6.95;78.53
56689;BME280;42565;53.342;-1.534;2023-12-28T04:24:45;97038.00;;;6.83;80.48
56689;BME280;42565;53.342;-1.534;2023-12-28T04:27:12;97045.57;;;6.44;81.46
56689;BME280;42565;53.342;-1.534;2023-12-28T04:29:39;97054.00;;;6.97;79.24
56689;BME280;42565;53.342;-1.534;2023-12-28T04:32:06;97059.38;;;6.58;79.75
56689;BME280;42565;53.342;-1.534;2023-12-28T04:34:33;97060.76;;;7.30;78.73
56689;BME280;42565;53.342;-1.534;2023-12-28T04:37:02;97062.48;;;6.67;77.99
56689;BME280;42565;53.342;-1.534;2023-12-28T04:39:30;97074.34;;;6.82;79.06
56689;BME280;42565;53.342;-1.534;2023-12-28T04:41:57;97063.25;;;7.07;79.65
56689;BME280;42565;53.342;-1.534;2023-12-28T04:44:24;97070.50;;;6.53;80.52
56689;BME280;42565;53.342;-1.534;2023-12-28T04:46:51;97068.67;;;6.59;81.33
56689;BME280;42565;53.342;-1.534;2023-12-28T04:49:17;97073.24;;;6.65;78.97
56689;BME280;42565;53.342;-1.534;2023-12-28T04:51:44;97078.20;;;6.70;79.98
56689;BME280;42565;53.342;-1.534;2023-12-28T04:54:12;97074.48;;;7.12;78.48
56689;BME280;42565;53.342;-1.534;2023-12-28T04:56:39;97073.70;;;7.17;78.34
56689;BME280;42565;53.342;-1.534;2023-12-28T04:59:06;97084.69;;;7.44;78.27
56689;BME280;42565;53.342;-1.534;2023-12-28T05:01:33;97093.86;;;6.88;78.62
56689;BME280;42565;53.342;-1.534;2023-12-28T05:04:00;97092.30;;;7.58;77.35
56689;BME280;42565;53.342;-1.534;2023-12-28T05:06:28;97111.49;;;7.00;78.55
56689;BME280;42565;53.342;-1.534;2023-12-28T05:08:55;97115.03;;;7.06;77.94
56689;BME280;42565;53.342;-1.534;2023-12-28T05:11:23;97114.21;;;7.17;78.75
56689;BME280;42565;53.342;-1.534;2023-12-28T05:13:49;97115.14;;;6.98;77.38
56689;BME280;42565;53.342;-1.534;2023-12-28T05:16:16;97133.79;;;6.97;77.46
56689;BME280;42565;53.342;-1.534;2023-12-28T05:18:44;97127.17;;;6.86;78.57
56689;BME280;42565;53.342;-1.534;2023-12-28T05:21:12;97134.78;;;6.72;78.11
56689;BME280;42565;53.342;-1.534;2023-12-28T05:23:39;97133.20;;;6.60;78.88
56689;BME280;42565;53.342;-1.534;2023-12-28T05:26:06;97127.67;;;6.59;79.31
56689;BME280;42565;53.342;-1.534;2023-12-28T05:28:33;97132.83;;;6.49;77.68
56689;BME280;42565;53.342;-1.534;2023-12-28T05:31:01;97123.38;;;6.56;78.55
56689;BME280;42565;53.342;-1.534;2023-12-28T05:33:28;97122.50;;;6.34;78.02
56689;BME280;42565;53.342;-1.534;2023-12-28T05:35:56;97121.26;;;7.24;76.69
56689;BME280;42565;53.342;-1.534;2023-12-28T05:38:22;97126.23;;;7.49;75.08
56689;BME280;42565;53.342;-1.534;2023-12-28T05:40:49;97121.16;;;7.84;74.43
56689;BME280;42565;53.342;-1.534;2023-12-28T05:43:17;97126.71;;;6.97;77.04
56689;BME280;42565;53.342;-1.534;2023-12-28T05:45:43;97125.95;;;7.50;76.12
56689;BME280;42565;53.342;-1.534;2023-12-28T05:48:10;97112.45;;;6.96;77.76
56689;BME280;42565;53.342;-1.534;2023-12-28T05:50:38;97114.66;;;7.21;76.34
56689;BME280;42565;53.342;-1.534;2023-12-28T05:53:04;97122.91;;;7.29;77.49
56689;BME280;42565;53.342;-1.534;2023-12-28T05:55:31;97130.67;;;7.45;77.09
56689;BME280;42565;53.342;-1.534;2023-12-28T05:57:58;97134.29;;;6.63;78.64
56689;BME280;42565;53.342;-1.534;2023-12-28T06:00:25;97134.20;;;6.46;79.10
56689;BME280;42565;53.342;-1.534;2023-12-28T06:02:51;97142.28;;;6.98;79.44
56689;BME280;42565;53.342;-1.534;2023-12-28T06:05:18;97141.76;;;6.35;79.81
56689;BME280;42565;53.342;-1.534;2023-12-28T06:07:45;97141.38;;;6.65;80.66
56689;BME280;42565;53.342;-1.534;2023-12-28T06:10:13;97150.68;;;6.83;78.95
56689;BME280;42565;53.342;-1.534;2023-12-28T06:12:41;97158.76;;;5.98;81.15
56689;BME280;42565;53.342;-1.534;2023-12-28T06:15:08;97166.07;;;6.43;81.07
56689;BME280;42565;53.342;-1.534;2023-12-28T06:17:36;97171.86;;;6.45;80.98
56689;BME280;42565;53.342;-1.534;2023-12-28T06:20:04;97176.07;;;6.56;81.36
56689;BME280;42565;53.342;-1.534;2023-12-28T06:22:32;97182.22;;;6.80;80.75
56689;BME280;42565;53.342;-1.534;2023-12-28T06:24:58;97177.16;;;7.34;78.96
56689;BME280;42565;53.342;-1.534;2023-12-28T06:27:26;97181.06;;;6.51;80.74
56689;BME280;42565;53.342;-1.534;2023-12-28T06:29:53;97180.61;;;6.81;79.41
56689;BME280;42565;53.342;-1.534;2023-12-28T06:32:20;97187.36;;;6.86;79.64
56689;BME280;42565;53.342;-1.534;2023-12-28T06:34:47;97188.51;;;6.61;81.59
56689;BME280;42565;53.342;-1.534;2023-12-28T06:37:15;97182.85;;;6.76;79.94
56689;BME280;42565;53.342;-1.534;2023-12-28T06:39:43;97189.80;;;6.53;82.20
56689;BME280;42565;53.342;-1.534;2023-12-28T06:42:10;97189.89;;;7.16;78.97
56689;BME280;42565;53.342;-1.534;2023-12-28T06:44:37;97185.92;;;6.90;80.41
56689;BME280;42565;53.342;-1.534;2023-12-28T06:47:04;97191.94;;;6.58;80.89
56689;BME280;42565;53.342;-1.534;2023-12-28T06:49:32;97199.46;;;6.39;80.32
56689;BME280;42565;53.342;-1.534;2023-12-28T06:51:59;97202.03;;;7.38;79.03
56689;BME280;42565;53.342;-1.534;2023-12-28T06:54:27;97195.30;;;6.51;81.69
56689;BME280;42565;53.342;-1.534;2023-12-28T06:56:54;97195.87;;;6.71;81.26
56689;BME280;42565;53.342;-1.534;2023-12-28T06:59:20;97208.10;;;6.34;82.65
56689;BME280;42565;53.342;-1.534;2023-12-28T07:01:48;97209.29;;;6.37;82.69
56689;BME280;42565;53.342;-1.534;2023-12-28T07:04:16;97205.53;;;6.02;82.05
56689;BME280;42565;53.342;-1.534;2023-12-28T07:06:43;97209.81;;;6.18;82.98
56689;BME280;42565;53.342;-1.534;2023-12-28T07:09:10;97211.86;;;6.23;82.97
56689;BME280;42565;53.342;-1.534;2023-12-28T07:11:37;97218.96;;;6.40;81.48
56689;BME280;42565;53.342;-1.534;2023-12-28T07:14:04;97223.90;;;6.57;79.67
56689;BME280;42565;53.342;-1.534;2023-12-28T07:16:32;97223.79;;;6.56;80.24
56689;BME280;42565;53.342;-1.534;2023-12-28T07:18:59;97227.33;;;6.58;78.46
56689;BME280;42565;53.342;-1.534;2023-12-28T07:21:25;97230.14;;;6.31;77.43
56689;BME280;42565;53.342;-1.534;2023-12-28T07:23:52;97223.84;;;7.04;75.41
56689;BME280;42565;53.342;-1.534;2023-12-28T07:26:19;97225.76;;;6.83;74.99
56689;BME280;42565;53.342;-1.534;2023-12-28T07:28:46;97236.38;;;7.02;73.98
56689;BME280;42565;53.342;-1.534;2023-12-28T07:31:23;97246.13;;;7.25;73.67
56689;BME280;42565;53.342;-1.534;2023-12-28T07:33:50;97251.21;;;6.72;73.97
56689;BME280;42565;53.342;-1.534;2023-12-28T07:36:17;97267.77;;;6.90;73.86
56689;BME280;42565;53.342;-1.534;2023-12-28T07:38:44;97285.69;;;6.81;76.05
56689;BME280;42565;53.342;-1.534;2023-12-28T07:41:11;97266.69;;;7.68;75.44
56689;BME280;42565;53.342;-1.534;2023-12-28T07:43:38;97281.00;;;7.01;81.23
56689;BME280;42565;53.342;-1.534;2023-12-28T07:46:05;97266.58;;;6.33;83.63
56689;BME280;42565;53.342;-1.534;2023-12-28T07:48:33;97256.58;;;6.05;89.31
56689;BME280;42565;53.342;-1.534;2023-12-28T07:51:04;97276.31;;;6.30;88.15
56689;BME280;42565;53.342;-1.534;2023-12-28T07:53:31;97273.81;;;6.34;86.74
56689;BME280;42565;53.342;-1.534;2023-12-28T07:55:57;97284.90;;;6.32;88.24
56689;BME280;42565;53.342;-1.534;2023-12-28T07:58:24;97288.10;;;5.65;89.98
56689;BME280;42565;53.342;-1.534;2023-12-28T08:00:51;97289.08;;;5.99;88.57
56689;BME280;42565;53.342;-1.534;2023-12-28T08:03:17;97304.45;;;5.81;89.00
56689;BME280;42565;53.342;-1.534;2023-12-28T08:05:44;97302.83;;;5.57;89.93
56689;BME280;42565;53.342;-1.534;2023-12-28T08:08:11;97296.50;;;5.51;91.49
56689;BME280;42565;53.342;-1.534;2023-12-28T08:10:39;97303.50;;;5.95;91.01
56689;BME280;42565;53.342;-1.534;2023-12-28T08:13:06;97287.03;;;6.38;88.69
56689;BME280;42565;53.342;-1.534;2023-12-28T08:15:33;97289.39;;;6.15;89.33
56689;BME280;42565;53.342;-1.534;2023-12-28T08:18:00;97287.08;;;6.09;89.59
56689;BME280;42565;53.342;-1.534;2023-12-28T08:20:27;97272.15;;;5.22;93.01
56689;BME280;42565;53.342;-1.534;2023-12-28T08:22:54;97272.43;;;5.07;94.31
56689;BME280;42565;53.342;-1.534;2023-12-28T08:25:22;97273.80;;;5.56;94.01
56689;BME280;42565;53.342;-1.534;2023-12-28T08:27:48;97276.20;;;5.25;93.97
56689;BME280;42565;53.342;-1.534;2023-12-28T08:30:16;97272.72;;;5.48;93.63
56689;BME280;42565;53.342;-1.534;2023-12-28T08:32:43;97269.80;;;5.56;93.28
56689;BME280;42565;53.342;-1.534;2023-12-28T08:35:10;97266.32;;;5.52;92.71
56689;BME280;42565;53.342;-1.534;2023-12-28T08:37:37;97279.23;;;5.99;94.37
56689;BME280;42565;53.342;-1.534;2023-12-28T08:40:05;97287.47;;;5.73;92.92
56689;BME280;42565;53.342;-1.534;2023-12-28T08:42:32;97287.53;;;5.77;93.45
56689;BME280;42565;53.342;-1.534;2023-12-28T08:45:00;97285.01;;;5.44;95.13
56689;BME280;42565;53.342;-1.534;2023-12-28T08:47:26;97289.41;;;5.81;93.45
56689;BME280;42565;53.342;-1.534;2023-12-28T08:49:53;97302.73;;;5.74;93.36
56689;BME280;42565;53.342;-1.534;2023-12-28T08:52:20;97303.98;;;5.90;92.18
56689;BME280;42565;53.342;-1.534;2023-12-28T08:54:47;97307.51;;;5.89;93.73
56689;BME280;42565;53.342;-1.534;2023-12-28T08:57:13;97301.99;;;5.82;93.27
56689;BME280;42565;53.342;-1.534;2023-12-28T08:59:40;97293.93;;;6.08;91.06
56689;BME280;42565;53.342;-1.534;2023-12-28T09:02:07;97300.78;;;6.41;90.86
56689;BME280;42565;53.342;-1.534;2023-12-28T09:04:34;97291.48;;;6.67;91.65
56689;BME280;42565;53.342;-1.534;2023-12-28T09:07:00;97292.45;;;6.59;88.25
56689;BME280;42565;53.342;-1.534;2023-12-28T09:09:28;97288.13;;;7.90;86.09
56689;BME280;42565;53.342;-1.534;2023-12-28T09:11:56;97292.90;;;8.39;81.51
56689;BME280;42565;53.342;-1.534;2023-12-28T09:14:22;97291.68;;;8.81;77.38
56689;BME280;42565;53.342;-1.534;2023-12-28T09:16:49;97285.09;;;8.99;76.13
56689;BME280;42565;53.342;-1.534;2023-12-28T09:19:16;97289.21;;;8.04;79.72
56689;BME280;42565;53.342;-1.534;2023-12-28T09:21:43;97297.79;;;7.95;81.75
56689;BME280;42565;53.342;-1.534;2023-12-28T09:24:11;97296.60;;;6.91;84.87
56689;BME280;42565;53.342;-1.534;2023-12-28T09:26:37;97291.57;;;7.45;84.76
56689;BME280;42565;53.342;-1.534;2023-12-28T09:29:04;97294.78;;;7.30;83.94
56689;BME280;42565;53.342;-1.534;2023-12-28T09:31:31;97294.83;;;6.21;88.36
56689;BME280;42565;53.342;-1.534;2023-12-28T09:33:58;97288.56;;;6.35;89.52
56689;BME280;42565;53.342;-1.534;2023-12-28T09:36:24;97282.79;;;6.20;89.66
56689;BME280;42565;53.342;-1.534;2023-12-28T09:38:51;97287.51;;;6.19;90.99
56689;BME280;42565;53.342;-1.534;2023-12-28T09:41:22;97295.95;;;5.94;89.53
56689;BME280;42565;53.342;-1.534;2023-12-28T09:43:54;97290.98;;;6.37;89.41
56689;BME280;42565;53.342;-1.534;2023-12-28T09:46:24;97287.32;;;6.34;90.63
56689;BME280;42565;53.342;-1.534;2023-12-28T09:48:52;97296.30;;;5.88;91.52
56689;BME280;42565;53.342;-1.534;2023-12-28T09:51:19;97297.57;;;6.56;92.59
56689;BME280;42565;53.342;-1.534;2023-12-28T09:53:47;97297.87;;;6.33;91.53
56689;BME280;42565;53.342;-1.534;2023-12-28T09:56:14;97303.03;;;6.38;92.65
56689;BME280;42565;53.342;-1.534;2023-12-28T09:58:42;97306.03;;;6.31;91.97
56689;BME280;42565;53.342;-1.534;2023-12-28T10:01:13;97311.56;;;6.31;91.33
56689;BME280;42565;53.342;-1.534;2023-12-28T10:03:41;97317.44;;;6.75;87.32
56689;BME280;42565;53.342;-1.534;2023-12-28T10:06:07;97311.48;;;7.29;86.91
56689;BME280;42565;53.342;-1.534;2023-12-28T10:08:34;97321.62;;;7.20;87.41
56689;BME280;42565;53.342;-1.534;2023-12-28T10:11:02;97317.99;;;6.36;90.87
56689;BME280;42565;53.342;-1.534;2023-12-28T10:13:33;97302.30;;;6.47;91.94
56689;BME280;42565;53.342;-1.534;2023-12-28T10:15:59;97300.48;;;6.93;90.04
56689;BME280;42565;53.342;-1.534;2023-12-28T10:18:26;97294.35;;;6.90;89.48
56689;BME280;42565;53.342;-1.534;2023-12-28T10:20:54;97288.84;;;7.02;87.19
56689;BME280;42565;53.342;-1.534;2023-12-28T10:23:21;97292.62;;;6.65;87.86
56689;BME280;42565;53.342;-1.534;2023-12-28T10:25:50;97289.06;;;6.60;88.34
56689;BME280;42565;53.342;-1.534;2023-12-28T10:28:17;97298.90;;;6.61;89.16
56689;BME280;42565;53.342;-1.534;2023-12-28T10:30:44;97295.52;;;7.29;87.11
56689;BME280;42565;53.342;-1.534;2023-12-28T10:33:13;97282.66;;;7.01;89.58
56689;BME280;42565;53.342;-1.534;2023-12-28T10:35:40;97297.29;;;5.90;91.64
56689;BME280;42565;53.342;-1.534;2023-12-28T10:38:09;97278.61;;;6.58;91.78
56689;BME280;42565;53.342;-1.534;2023-12-28T10:40:37;97289.35;;;6.14;95.81
56689;BME280;42565;53.342;-1.534;2023-12-28T10:43:06;97274.47;;;5.60;99.62
56689;BME280;42565;53.342;-1.534;2023-12-28T10:45:37;97275.50;;;5.76;98.32
56689;BME280;42565;53.342;-1.534;2023-12-28T10:48:07;97269.27;;;5.27;100.00
56689;BME280;42565;53.342;-1.534;2023-12-28T10:50:39;97272.90;;;5.63;100.00
56689;BME280;42565;53.342;-1.534;2023-12-28T10:53:18;97276.26;;;4.96;100.00
56689;BME280;42565;53.342;-1.534;2023-12-28T10:55:53;97262.88;;;5.15;100.00
56689;BME280;42565;53.342;-1.534;2023-12-28T10:58:34;97261.44;;;5.33;100.00
56689;BME280;42565;53.342;-1.534;2023-12-28T11:01:08;97253.88;;;5.19;100.00
56689;BME280;42565;53.342;-1.534;2023-12-28T11:03:37;97244.22;;;5.70;100.00
56689;BME280;42565;53.342;-1.534;2023-12-28T11:06:08;97236.96;;;5.54;100.00
56689;BME280;42565;53.342;-1.534;2023-12-28T11:08:36;97244.39;;;5.87;98.54
56689;BME280;42565;53.342;-1.534;2023-12-28T11:11:04;97225.64;;;5.83;97.39
56689;BME280;42565;53.342;-1.534;2023-12-28T11:13:34;97223.39;;;6.29;97.96
56689;BME280;42565;53.342;-1.534;2023-12-28T11:16:02;97212.27;;;5.95;97.35
56689;BME280;42565;53.342;-1.534;2023-12-28T11:18:29;97207.54;;;5.95;96.18
56689;BME280;42565;53.342;-1.534;2023-12-28T11:20:56;97200.50;;;6.08;96.33
56689;BME280;42565;53.342;-1.534;2023-12-28T11:23:24;97210.80;;;5.88;95.76
56689;BME280;42565;53.342;-1.534;2023-12-28T11:25:52;97185.08;;;5.63;98.42
56689;BME280;42565;53.342;-1.534;2023-12-28T11:28:19;97187.18;;;5.48;98.11
56689;BME280;42565;53.342;-1.534;2023-12-28T11:30:46;97189.31;;;6.21;96.53
56689;BME280;42565;53.342;-1.534;2023-12-28T11:33:14;97186.54;;;6.07;96.39
56689;BME280;42565;53.342;-1.534;2023-12-28T11:35:41;97185.60;;;5.61;96.07
56689;BME280;42565;53.342;-1.534;2023-12-28T11:38:11;97181.77;;;5.91;99.49
56689;BME280;42565;53.342;-1.534;2023-12-28T11:40:40;97156.18;;;5.62;99.79
56689;BME280;42565;53.342;-1.534;2023-12-28T11:43:17;97160.47;;;5.41;100.00
56689;BME280;42565;53.342;-1.534;2023-12-28T11:45:48;97143.47;;;6.06;98.90
56689;BME280;42565;53.342;-1.534;2023-12-28T11:48:23;97143.35;;;6.05;100.00
56689;BME280;42565;53.342;-1.534;2023-12-28T11:50:50;97136.12;;;5.10;100.00
56689;BME280;42565;53.342;-1.534;2023-12-28T11:53:18;97137.31;;;5.54;100.00
56689;BME280;42565;53.342;-1.534;2023-12-28T11:55:46;97129.61;;;5.58;100.00
56689;BME280;42565;53.342;-1.534;2023-12-28T11:58:13;97137.22;;;5.10;100.00
56689;BME280;42565;53.342;-1.534;2023-12-28T12:00:40;97129.18;;;5.21;100.00
56689;BME280;42565;53.342;-1.534;2023-12-28T12:03:10;97137.79;;;4.97;100.00
56689;BME280;42565;53.342;-1.534;2023-12-28T12:05:37;97148.94;;;5.61;100.00
56689;BME280;42565;53.342;-1.534;2023-12-28T12:08:06;97143.58;;;5.77;100.00
56689;BME280;42565;53.342;-1.534;2023-12-28T12:10:33;97133.22;;;5.73;100.00
56689;BME280;42565;53.342;-1.534;2023-12-28T12:13:00;97128.74;;;5.89;100.00
56689;BME280;42565;53.342;-1.534;2023-12-28T12:15:27;97130.62;;;5.27;100.00
56689;BME280;42565;53.342;-1.534;2023-12-28T12:17:55;97132.49;;;5.23;100.00
56689;BME280;42565;53.342;-1.534;2023-12-28T12:20:23;97112.22;;;5.05;100.00
56689;BME280;42565;53.342;-1.534;2023-12-28T12:22:50;97094.85;;;5.64;100.00
56689;BME280;42565;53.342;-1.534;2023-12-28T12:25:17;97104.92;;;5.82;99.30
56689;BME280;42565;53.342;-1.534;2023-12-28T12:27:44;97114.31;;;6.27;98.73
56689;BME280;42565;53.342;-1.534;2023-12-28T12:30:13;97109.12;;;5.78;99.16
56689;BME280;42565;53.342;-1.534;2023-12-28T12:32:40;97088.26;;;5.57;100.00
56689;BME280;42565;53.342;-1.534;2023-12-28T12:35:07;97086.48;;;6.07;100.00
56689;BME280;42565;53.342;-1.534;2023-12-28T12:37:35;97080.49;;;6.44;98.02
56689;BME280;42565;53.342;-1.534;2023-12-28T12:40:04;97057.77;;;6.60;95.88
56689;BME280;42565;53.342;-1.534;2023-12-28T12:42:31;97071.82;;;6.84;93.12
56689;BME280;42565;53.342;-1.534;2023-12-28T12:44:58;97070.91;;;6.88;92.42
56689;BME280;42565;53.342;-1.534;2023-12-28T12:47:25;97056.95;;;7.07;89.88
56689;BME280;42565;53.342;-1.534;2023-12-28T12:49:55;97067.51;;;6.70;90.97
56689;BME280;42565;53.342;-1.534;2023-12-28T12:52:22;97061.06;;;6.65;91.97
56689;BME280;42565;53.342;-1.534;2023-12-28T12:54:54;97058.44;;;6.58;91.36
56689;BME280;42565;53.342;-1.534;2023-12-28T12:57:21;97052.52;;;6.58;92.22
56689;BME280;42565;53.342;-1.534;2023-12-28T12:59:48;97052.45;;;6.78;92.01
56689;BME280;42565;53.342;-1.534;2023-12-28T13:02:15;97034.92;;;6.84;92.05